sensor_id;sensor_type;location;lat;lon;timestamp;temperature;humidity
1329;DHT22;658;48.820;9.354;2023-03-21T00:03:32;21.70;43.70
1329;DHT22;658;48.820;9.354;2023-03-21T00:07:33;21.70;43.70
1329;DHT22;658;48.820;9.354;2023-03-21T00:11:34;21.70;43.70
1329;DHT22;658;48.820;9.354;2023-03-21T00:15:35;21.70;43.70
1329;DHT22;658;48.820;9.354;2023-03-21T00:19:52;21.60;43.60
1329;DHT22;658;48.820;9.354;2023-03-21T00:23:54;21.60;43.60
1329;DHT22;658;48.820;9.354;2023-03-21T00:27:55;21.60;43.60
1329;DHT22;658;48.820;9.354;2023-03-21T00:31:57;21.60;43.70
1329;DHT22;658;48.820;9.354;2023-03-21T00:36:00;21.60;43.60
1329;DHT22;658;48.820;9.354;2023-03-21T00:40:02;21.70;43.60
1329;DHT22;658;48.820;9.354;2023-03-21T00:44:12;21.70;43.60
1329;DHT22;658;48.820;9.354;2023-03-21T00:48:14;21.70;43.60
1329;DHT22;658;48.820;9.354;2023-03-21T00:52:15;21.70;43.50
1329;DHT22;658;48.820;9.354;2023-03-21T00:56:16;21.70;43.50
1329;DHT22;658;48.820;9.354;2023-03-21T01:00:17;21.70;43.50
1329;DHT22;658;48.820;9.354;2023-03-21T01:04:18;21.70;43.50
1329;DHT22;658;48.820;9.354;2023-03-21T01:08:20;21.70;43.50
1329;DHT22;658;48.820;9.354;2023-03-21T01:12:21;21.70;43.50
1329;DHT22;658;48.820;9.354;2023-03-21T01:16:22;21.80;43.60
1329;DHT22;658;48.820;9.354;2023-03-21T01:20:22;21.80;43.50
1329;DHT22;658;48.820;9.354;2023-03-21T01:24:23;21.70;43.40
1329;DHT22;658;48.820;9.354;2023-03-21T01:28:26;21.80;43.50
1329;DHT22;658;48.820;9.354;2023-03-21T01:32:29;21.80;43.50
1329;DHT22;658;48.820;9.354;2023-03-21T01:36:31;21.80;43.50
1329;DHT22;658;48.820;9.354;2023-03-21T01:40:32;21.80;43.50
1329;DHT22;658;48.820;9.354;2023-03-21T01:45:00;21.80;43.50
1329;DHT22;658;48.820;9.354;2023-03-21T01:49:18;21.80;43.40
1329;DHT22;658;48.820;9.354;2023-03-21T01:53:27;21.80;43.50
1329;DHT22;658;48.820;9.354;2023-03-21T01:57:31;21.80;43.40
1329;DHT22;658;48.820;9.354;2023-03-21T02:01:33;21.80;43.40
1329;DHT22;658;48.820;9.354;2023-03-21T02:10:24;21.80;43.40
1329;DHT22;658;48.820;9.354;2023-03-21T02:14:26;21.90;43.50
1329;DHT22;658;48.820;9.354;2023-03-21T02:31:25;21.90;43.50
1329;DHT22;658;48.820;9.354;2023-03-21T02:40:22;21.90;43.40
1329;DHT22;658;48.820;9.354;2023-03-21T02:52:51;21.90;43.40
1329;DHT22;658;48.820;9.354;2023-03-21T02:56:55;21.90;43.40
1329;DHT22;658;48.820;9.354;2023-03-21T03:00:57;21.90;43.50
1329;DHT22;658;48.820;9.354;2023-03-21T03:04:57;21.90;43.40
1329;DHT22;658;48.820;9.354;2023-03-21T03:09:23;21.90;43.50
1329;DHT22;658;48.820;9.354;2023-03-21T03:13:43;21.90;43.50
1329;DHT22;658;48.820;9.354;2023-03-21T03:22:22;21.90;43.50
1329;DHT22;658;48.820;9.354;2023-03-21T03:30:36;21.90;43.50
1329;DHT22;658;48.820;9.354;2023-03-21T03:34:41;21.80;43.40
1329;DHT22;658;48.820;9.354;2023-03-21T03:38:45;21.90;43.50
1329;DHT22;658;48.820;9.354;2023-03-21T03:42:52;21.90;43.50
1329;DHT22;658;48.820;9.354;2023-03-21T03:47:07;21.80;43.50
1329;DHT22;658;48.820;9.354;2023-03-21T03:51:20;21.90;43.50
1329;DHT22;658;48.820;9.354;2023-03-21T03:55:22;21.80;43.40
1329;DHT22;658;48.820;9.354;2023-03-21T03:59:26;21.80;43.40
1329;DHT22;658;48.820;9.354;2023-03-21T04:03:26;21.80;43.50
1329;DHT22;658;48.820;9.354;2023-03-21T04:07:27;21.90;43.50
1329;DHT22;658;48.820;9.354;2023-03-21T04:11:28;21.80;43.50
1329;DHT22;658;48.820;9.354;2023-03-21T04:15:29;21.80;43.50
1329;DHT22;658;48.820;9.354;2023-03-21T04:19:29;21.80;43.50
1329;DHT22;658;48.820;9.354;2023-03-21T04:23:30;21.80;43.50
1329;DHT22;658;48.820;9.354;2023-03-21T04:27:31;21.80;44.10
1329;DHT22;658;48.820;9.354;2023-03-21T04:31:33;21.80;43.50
1329;DHT22;658;48.820;9.354;2023-03-21T04:35:35;21.80;43.50
1329;DHT22;658;48.820;9.354;2023-03-21T04:39:35;21.80;43.50
1329;DHT22;658;48.820;9.354;2023-03-21T04:43:36;21.80;43.60
1329;DHT22;658;48.820;9.354;2023-03-21T04:47:37;21.80;43.50
1329;DHT22;658;48.820;9.354;2023-03-21T04:51:40;21.80;43.60
1329;DHT22;658;48.820;9.354;2023-03-21T04:55:41;21.80;43.50
1329;DHT22;658;48.820;9.354;2023-03-21T04:59:44;21.80;43.50
1329;DHT22;658;48.820;9.354;2023-03-21T05:03:45;21.80;43.60
1329;DHT22;658;48.820;9.354;2023-03-21T05:07:48;21.80;43.60
1329;DHT22;658;48.820;9.354;2023-03-21T05:11:51;21.80;43.50
1329;DHT22;658;48.820;9.354;2023-03-21T05:15:52;21.80;43.60
1329;DHT22;658;48.820;9.354;2023-03-21T05:19:53;21.80;43.60
1329;DHT22;658;48.820;9.354;2023-03-21T05:23:55;21.80;43.60
1329;DHT22;658;48.820;9.354;2023-03-21T05:27:57;21.80;43.60
1329;DHT22;658;48.820;9.354;2023-03-21T05:32:01;21.80;43.60
1329;DHT22;658;48.820;9.354;2023-03-21T05:36:02;21.70;43.50
1329;DHT22;658;48.820;9.354;2023-03-21T05:40:05;21.80;43.60
1329;DHT22;658;48.820;9.354;2023-03-21T05:44:08;21.80;43.50
1329;DHT22;658;48.820;9.354;2023-03-21T05:48:09;21.80;43.50
1329;DHT22;658;48.820;9.354;2023-03-21T05:52:10;21.80;43.50
1329;DHT22;658;48.820;9.354;2023-03-21T05:56:11;21.80;43.60
1329;DHT22;658;48.820;9.354;2023-03-21T06:00:12;21.70;43.50
1329;DHT22;658;48.820;9.354;2023-03-21T06:04:15;21.70;43.40
1329;DHT22;658;48.820;9.354;2023-03-21T06:08:18;21.80;44.50
1329;DHT22;658;48.820;9.354;2023-03-21T06:12:21;21.90;44.40
1329;DHT22;658;48.820;9.354;2023-03-21T06:16:24;21.90;44.40
1329;DHT22;658;48.820;9.354;2023-03-21T06:20:28;21.90;44.00
1329;DHT22;658;48.820;9.354;2023-03-21T06:24:28;21.90;43.90
1329;DHT22;658;48.820;9.354;2023-03-21T06:28:29;21.90;44.00
1329;DHT22;658;48.820;9.354;2023-03-21T06:32:30;21.90;43.90
1329;DHT22;658;48.820;9.354;2023-03-21T06:36:32;21.90;43.90
1329;DHT22;658;48.820;9.354;2023-03-21T06:40:33;21.90;43.90
1329;DHT22;658;48.820;9.354;2023-03-21T06:44:34;21.90;43.80
1329;DHT22;658;48.820;9.354;2023-03-21T06:48:34;21.90;43.90
1329;DHT22;658;48.820;9.354;2023-03-21T06:52:36;22.00;44.20
1329;DHT22;658;48.820;9.354;2023-03-21T06:56:37;22.00;43.80
1329;DHT22;658;48.820;9.354;2023-03-21T07:00:37;22.10;43.80
1329;DHT22;658;48.820;9.354;2023-03-21T07:04:38;22.10;43.80
1329;DHT22;658;48.820;9.354;2023-03-21T07:08:42;22.20;43.70
1329;DHT22;658;48.820;9.354;2023-03-21T07:12:47;22.30;43.80
1329;DHT22;658;48.820;9.354;2023-03-21T07:16:47;22.30;43.70
1329;DHT22;658;48.820;9.354;2023-03-21T07:20:49;22.40;43.70
1329;DHT22;658;48.820;9.354;2023-03-21T07:24:53;22.40;43.60
1329;DHT22;658;48.820;9.354;2023-03-21T07:28:53;22.40;43.50
1329;DHT22;658;48.820;9.354;2023-03-21T07:32:54;22.50;43.50
1329;DHT22;658;48.820;9.354;2023-03-21T07:36:55;22.50;43.40
1329;DHT22;658;48.820;9.354;2023-03-21T07:40:58;22.60;43.30
1329;DHT22;658;48.820;9.354;2023-03-21T07:44:58;22.60;43.20
1329;DHT22;658;48.820;9.354;2023-03-21T07:48:59;22.70;43.20
1329;DHT22;658;48.820;9.354;2023-03-21T07:53:00;22.70;43.30
1329;DHT22;658;48.820;9.354;2023-03-21T07:57:01;22.80;43.10
1329;DHT22;658;48.820;9.354;2023-03-21T08:01:02;22.80;43.60
1329;DHT22;658;48.820;9.354;2023-03-21T08:09:59;22.90;43.10
1329;DHT22;658;48.820;9.354;2023-03-21T08:14:00;23.00;43.00
1329;DHT22;658;48.820;9.354;2023-03-21T08:18:01;23.00;43.00
1329;DHT22;658;48.820;9.354;2023-03-21T08:22:04;23.10;42.90
1329;DHT22;658;48.820;9.354;2023-03-21T08:26:06;23.10;42.80
1329;DHT22;658;48.820;9.354;2023-03-21T08:30:12;23.10;42.70
1329;DHT22;658;48.820;9.354;2023-03-21T08:34:15;23.20;42.70
1329;DHT22;658;48.820;9.354;2023-03-21T08:38:19;23.20;42.70
1329;DHT22;658;48.820;9.354;2023-03-21T08:42:21;23.30;42.90
1329;DHT22;658;48.820;9.354;2023-03-21T08:46:25;23.30;42.60
1329;DHT22;658;48.820;9.354;2023-03-21T08:50:29;23.40;42.60
1329;DHT22;658;48.820;9.354;2023-03-21T08:54:31;23.50;42.60
1329;DHT22;658;48.820;9.354;2023-03-21T08:58:32;23.50;42.50
1329;DHT22;658;48.820;9.354;2023-03-21T09:02:32;23.50;42.50
1329;DHT22;658;48.820;9.354;2023-03-21T09:06:33;23.60;42.50
1329;DHT22;658;48.820;9.354;2023-03-21T09:10:34;23.60;42.40
1329;DHT22;658;48.820;9.354;2023-03-21T09:14:34;23.70;42.50
1329;DHT22;658;48.820;9.354;2023-03-21T09:18:35;23.70;42.30
1329;DHT22;658;48.820;9.354;2023-03-21T09:22:56;23.80;42.40
1329;DHT22;658;48.820;9.354;2023-03-21T09:26:58;23.80;42.30
1329;DHT22;658;48.820;9.354;2023-03-21T09:30:58;23.90;42.30
1329;DHT22;658;48.820;9.354;2023-03-21T09:35:03;23.90;42.10
1329;DHT22;658;48.820;9.354;2023-03-21T09:39:05;24.00;42.00
1329;DHT22;658;48.820;9.354;2023-03-21T09:47:28;24.10;41.80
1329;DHT22;658;48.820;9.354;2023-03-21T09:51:35;24.10;41.60
1329;DHT22;658;48.820;9.354;2023-03-21T09:55:40;24.20;41.60
1329;DHT22;658;48.820;9.354;2023-03-21T09:59:44;24.20;41.40
1329;DHT22;658;48.820;9.354;2023-03-21T10:03:47;24.30;41.30
1329;DHT22;658;48.820;9.354;2023-03-21T10:12:13;24.50;41.10
1329;DHT22;658;48.820;9.354;2023-03-21T10:16:39;24.50;41.10
1329;DHT22;658;48.820;9.354;2023-03-21T10:20:41;24.60;41.10
1329;DHT22;658;48.820;9.354;2023-03-21T10:24:42;24.70;40.90
1329;DHT22;658;48.820;9.354;2023-03-21T10:28:42;24.80;40.80
1329;DHT22;658;48.820;9.354;2023-03-21T10:32:44;24.80;40.70
1329;DHT22;658;48.820;9.354;2023-03-21T10:36:45;24.80;40.50
1329;DHT22;658;48.820;9.354;2023-03-21T10:40:46;24.90;40.60
1329;DHT22;658;48.820;9.354;2023-03-21T10:44:49;24.90;40.50
1329;DHT22;658;48.820;9.354;2023-03-21T10:48:51;24.90;40.30
1329;DHT22;658;48.820;9.354;2023-03-21T10:52:55;24.90;40.10
1329;DHT22;658;48.820;9.354;2023-03-21T10:57:05;25.00;40.10
1329;DHT22;658;48.820;9.354;2023-03-21T11:01:11;25.00;39.80
1329;DHT22;658;48.820;9.354;2023-03-21T11:05:21;25.00;38.80
1329;DHT22;658;48.820;9.354;2023-03-21T11:09:41;24.90;39.10
1329;DHT22;658;48.820;9.354;2023-03-21T11:13:43;24.80;37.90
1329;DHT22;658;48.820;9.354;2023-03-21T11:17:46;24.70;35.80
1329;DHT22;658;48.820;9.354;2023-03-21T11:21:47;24.50;36.30
1329;DHT22;658;48.820;9.354;2023-03-21T11:25:49;24.50;36.80
1329;DHT22;658;48.820;9.354;2023-03-21T11:29:53;24.40;36.80
1329;DHT22;658;48.820;9.354;2023-03-21T11:33:56;24.40;37.30
1329;DHT22;658;48.820;9.354;2023-03-21T11:38:01;24.40;36.80
1329;DHT22;658;48.820;9.354;2023-03-21T11:42:02;24.30;37.10
1329;DHT22;658;48.820;9.354;2023-03-21T11:55:02;24.20;38.40
1329;DHT22;658;48.820;9.354;2023-03-21T12:08:04;24.00;37.20
1329;DHT22;658;48.820;9.354;2023-03-21T12:24:53;23.80;37.60
1329;DHT22;658;48.820;9.354;2023-03-21T12:41:41;23.90;39.00
1329;DHT22;658;48.820;9.354;2023-03-21T12:45:45;24.00;39.10
1329;DHT22;658;48.820;9.354;2023-03-21T12:49:53;24.10;39.10
1329;DHT22;658;48.820;9.354;2023-03-21T12:58:20;24.20;39.50
1329;DHT22;658;48.820;9.354;2023-03-21T13:06:42;24.40;39.60
1329;DHT22;658;48.820;9.354;2023-03-21T13:10:45;24.40;39.40
1329;DHT22;658;48.820;9.354;2023-03-21T13:14:59;24.40;39.30
1329;DHT22;658;48.820;9.354;2023-03-21T13:19:07;24.40;39.50
1329;DHT22;658;48.820;9.354;2023-03-21T13:23:12;24.50;39.50
1329;DHT22;658;48.820;9.354;2023-03-21T13:27:37;24.50;39.30
1329;DHT22;658;48.820;9.354;2023-03-21T13:31:44;24.50;39.40
1329;DHT22;658;48.820;9.354;2023-03-21T13:35:58;24.50;39.30
1329;DHT22;658;48.820;9.354;2023-03-21T13:40:07;24.50;39.70
1329;DHT22;658;48.820;9.354;2023-03-21T13:44:23;24.50;39.60
1329;DHT22;658;48.820;9.354;2023-03-21T13:48:29;24.50;39.60
1329;DHT22;658;48.820;9.354;2023-03-21T13:52:30;24.50;39.60
1329;DHT22;658;48.820;9.354;2023-03-21T13:56:51;24.50;39.60
1329;DHT22;658;48.820;9.354;2023-03-21T14:05:30;24.50;39.80
1329;DHT22;658;48.820;9.354;2023-03-21T14:09:45;24.40;39.70
1329;DHT22;658;48.820;9.354;2023-03-21T14:13:47;24.40;40.20
1329;DHT22;658;48.820;9.354;2023-03-21T14:17:54;24.40;39.70
1329;DHT22;658;48.820;9.354;2023-03-21T14:21:55;24.40;39.80
1329;DHT22;658;48.820;9.354;2023-03-21T14:25:56;24.40;39.60
1329;DHT22;658;48.820;9.354;2023-03-21T14:30:00;24.40;39.60
1329;DHT22;658;48.820;9.354;2023-03-21T14:34:03;24.40;39.70
1329;DHT22;658;48.820;9.354;2023-03-21T14:38:16;24.30;39.50
1329;DHT22;658;48.820;9.354;2023-03-21T14:42:18;24.30;39.50
1329;DHT22;658;48.820;9.354;2023-03-21T14:46:23;24.30;39.50
1329;DHT22;658;48.820;9.354;2023-03-21T14:50:39;24.30;39.50
1329;DHT22;658;48.820;9.354;2023-03-21T14:54:44;24.30;39.50
1329;DHT22;658;48.820;9.354;2023-03-21T14:58:49;24.30;39.50
1329;DHT22;658;48.820;9.354;2023-03-21T15:02:50;24.30;39.50
1329;DHT22;658;48.820;9.354;2023-03-21T15:07:02;24.20;39.90
1329;DHT22;658;48.820;9.354;2023-03-21T15:11:10;24.30;39.90
1329;DHT22;658;48.820;9.354;2023-03-21T15:15:13;24.30;39.90
1329;DHT22;658;48.820;9.354;2023-03-21T15:19:17;24.30;39.90
1329;DHT22;658;48.820;9.354;2023-03-21T15:23:26;24.30;40.00
1329;DHT22;658;48.820;9.354;2023-03-21T15:27:31;24.30;40.00
1329;DHT22;658;48.820;9.354;2023-03-21T15:31:35;24.30;39.90
1329;DHT22;658;48.820;9.354;2023-03-21T15:35:40;24.30;40.10
1329;DHT22;658;48.820;9.354;2023-03-21T15:39:42;24.30;40.20
1329;DHT22;658;48.820;9.354;2023-03-21T15:43:43;24.30;40.10
1329;DHT22;658;48.820;9.354;2023-03-21T15:51:51;24.30;40.10
1329;DHT22;658;48.820;9.354;2023-03-21T15:55:56;24.30;40.30
1329;DHT22;658;48.820;9.354;2023-03-21T16:04:17;24.30;40.30
1329;DHT22;658;48.820;9.354;2023-03-21T16:08:20;24.30;40.30
1329;DHT22;658;48.820;9.354;2023-03-21T16:12:21;24.30;40.60
1329;DHT22;658;48.820;9.354;2023-03-21T16:16:25;24.30;40.40
1329;DHT22;658;48.820;9.354;2023-03-21T16:20:31;24.30;40.30
1329;DHT22;658;48.820;9.354;2023-03-21T16:24:32;24.30;40.30
1329;DHT22;658;48.820;9.354;2023-03-21T16:28:32;24.30;40.40
1329;DHT22;658;48.820;9.354;2023-03-21T16:32:33;24.30;40.50
1329;DHT22;658;48.820;9.354;2023-03-21T16:36:37;24.30;40.50
1329;DHT22;658;48.820;9.354;2023-03-21T16:40:41;24.30;40.50
1329;DHT22;658;48.820;9.354;2023-03-21T16:44:44;24.20;40.40
1329;DHT22;658;48.820;9.354;2023-03-21T16:48:49;24.20;40.40
1329;DHT22;658;48.820;9.354;2023-03-21T16:52:53;24.10;40.30
1329;DHT22;658;48.820;9.354;2023-03-21T16:56:55;24.10;40.30
1329;DHT22;658;48.820;9.354;2023-03-21T17:00:58;24.00;40.30
1329;DHT22;658;48.820;9.354;2023-03-21T17:05:01;24.00;40.30
1329;DHT22;658;48.820;9.354;2023-03-21T17:09:03;24.00;40.40
1329;DHT22;658;48.820;9.354;2023-03-21T17:13:04;24.00;41.00
1329;DHT22;658;48.820;9.354;2023-03-21T17:17:04;23.90;40.30
1329;DHT22;658;48.820;9.354;2023-03-21T17:21:23;23.90;40.30
1329;DHT22;658;48.820;9.354;2023-03-21T17:25:26;23.90;40.40
1329;DHT22;658;48.820;9.354;2023-03-21T17:29:27;23.90;40.40
1329;DHT22;658;48.820;9.354;2023-03-21T17:33:28;23.80;40.30
1329;DHT22;658;48.820;9.354;2023-03-21T17:37:29;23.90;40.50
1329;DHT22;658;48.820;9.354;2023-03-21T17:41:30;23.80;40.50
1329;DHT22;658;48.820;9.354;2023-03-21T17:45:33;23.80;40.40
1329;DHT22;658;48.820;9.354;2023-03-21T17:49:33;23.80;40.50
1329;DHT22;658;48.820;9.354;2023-03-21T17:53:34;23.70;40.50
1329;DHT22;658;48.820;9.354;2023-03-21T17:57:34;23.70;40.50
1329;DHT22;658;48.820;9.354;2023-03-21T18:01:38;23.70;40.50
1329;DHT22;658;48.820;9.354;2023-03-21T18:05:39;23.70;40.50
1329;DHT22;658;48.820;9.354;2023-03-21T18:09:40;23.70;41.00
1329;DHT22;658;48.820;9.354;2023-03-21T18:13:44;23.70;40.80
1329;DHT22;658;48.820;9.354;2023-03-21T18:17:44;23.60;40.70
1329;DHT22;658;48.820;9.354;2023-03-21T18:21:45;23.70;40.80
1329;DHT22;658;48.820;9.354;2023-03-21T18:25:49;23.60;40.70
1329;DHT22;658;48.820;9.354;2023-03-21T18:29:51;23.60;40.70
1329;DHT22;658;48.820;9.354;2023-03-21T18:33:52;23.60;40.70
1329;DHT22;658;48.820;9.354;2023-03-21T18:37:52;23.60;40.80
1329;DHT22;658;48.820;9.354;2023-03-21T18:41:54;23.50;40.70
1329;DHT22;658;48.820;9.354;2023-03-21T18:45:59;23.60;40.80
1329;DHT22;658;48.820;9.354;2023-03-21T18:49:59;23.60;40.80
1329;DHT22;658;48.820;9.354;2023-03-21T18:54:03;23.50;41.00
1329;DHT22;658;48.820;9.354;2023-03-21T18:58:05;23.60;41.20
1329;DHT22;658;48.820;9.354;2023-03-21T19:02:06;23.60;41.40
1329;DHT22;658;48.820;9.354;2023-03-21T19:06:07;23.50;41.40
1329;DHT22;658;48.820;9.354;2023-03-21T19:10:08;23.60;41.40
1329;DHT22;658;48.820;9.354;2023-03-21T19:14:10;23.60;41.50
1329;DHT22;658;48.820;9.354;2023-03-21T19:18:11;23.60;41.50
1329;DHT22;658;48.820;9.354;2023-03-21T19:22:12;23.60;41.50
1329;DHT22;658;48.820;9.354;2023-03-21T19:26:13;23.60;41.60
1329;DHT22;658;48.820;9.354;2023-03-21T19:30:14;23.60;42.10
1329;DHT22;658;48.820;9.354;2023-03-21T19:34:14;23.60;41.70
1329;DHT22;658;48.820;9.354;2023-03-21T19:38:15;23.70;41.60
1329;DHT22;658;48.820;9.354;2023-03-21T19:42:16;23.70;41.60
1329;DHT22;658;48.820;9.354;2023-03-21T19:46:17;23.70;41.60
1329;DHT22;658;48.820;9.354;2023-03-21T19:50:20;23.70;41.60
1329;DHT22;658;48.820;9.354;2023-03-21T19:54:20;23.70;41.70
1329;DHT22;658;48.820;9.354;2023-03-21T19:58:23;23.70;41.70
1329;DHT22;658;48.820;9.354;2023-03-21T20:02:24;23.70;41.60
1329;DHT22;658;48.820;9.354;2023-03-21T20:06:25;23.70;41.50
1329;DHT22;658;48.820;9.354;2023-03-21T20:10:26;23.70;41.60
1329;DHT22;658;48.820;9.354;2023-03-21T20:14:27;23.70;41.70
1329;DHT22;658;48.820;9.354;2023-03-21T20:18:28;23.70;41.60
1329;DHT22;658;48.820;9.354;2023-03-21T20:22:29;23.70;41.60
1329;DHT22;658;48.820;9.354;2023-03-21T20:26:32;23.70;41.70
1329;DHT22;658;48.820;9.354;2023-03-21T20:30:33;23.70;41.70
1329;DHT22;658;48.820;9.354;2023-03-21T20:34:34;23.70;41.80
1329;DHT22;658;48.820;9.354;2023-03-21T20:38:35;23.70;41.60
1329;DHT22;658;48.820;9.354;2023-03-21T20:42:37;23.70;41.60
1329;DHT22;658;48.820;9.354;2023-03-21T20:46:38;23.60;42.00
1329;DHT22;658;48.820;9.354;2023-03-21T20:50:42;23.60;42.30
1329;DHT22;658;48.820;9.354;2023-03-21T20:54:42;23.60;41.60
1329;DHT22;658;48.820;9.354;2023-03-21T20:58:43;23.60;41.60
1329;DHT22;658;48.820;9.354;2023-03-21T21:02:46;23.60;41.80
1329;DHT22;658;48.820;9.354;2023-03-21T21:06:47;23.60;41.80
1329;DHT22;658;48.820;9.354;2023-03-21T21:10:48;23.60;41.80
1329;DHT22;658;48.820;9.354;2023-03-21T21:14:48;23.60;41.80
1329;DHT22;658;48.820;9.354;2023-03-21T21:18:50;23.60;41.90
1329;DHT22;658;48.820;9.354;2023-03-21T21:22:50;23.60;42.00
1329;DHT22;658;48.820;9.354;2023-03-21T21:26:51;23.60;41.80
1329;DHT22;658;48.820;9.354;2023-03-21T21:30:52;23.60;41.90
1329;DHT22;658;48.820;9.354;2023-03-21T21:34:52;23.60;42.00
1329;DHT22;658;48.820;9.354;2023-03-21T21:38:54;23.60;41.90
1329;DHT22;658;48.820;9.354;2023-03-21T21:42:55;23.60;42.00
1329;DHT22;658;48.820;9.354;2023-03-21T21:47:02;23.60;42.00
1329;DHT22;658;48.820;9.354;2023-03-21T21:51:13;23.60;41.90
1329;DHT22;658;48.820;9.354;2023-03-21T21:55:17;23.60;41.90
1329;DHT22;658;48.820;9.354;2023-03-21T21:59:18;23.60;41.90
1329;DHT22;658;48.820;9.354;2023-03-21T22:03:21;23.60;41.90
1329;DHT22;658;48.820;9.354;2023-03-21T22:07:26;23.50;41.90
1329;DHT22;658;48.820;9.354;2023-03-21T22:11:29;23.50;41.90
1329;DHT22;658;48.820;9.354;2023-03-21T22:15:31;23.50;41.90
1329;DHT22;658;48.820;9.354;2023-03-21T22:19:32;23.40;41.80
1329;DHT22;658;48.820;9.354;2023-03-21T22:23:33;23.40;42.10
1329;DHT22;658;48.820;9.354;2023-03-21T22:27:34;23.30;41.90
1329;DHT22;658;48.820;9.354;2023-03-21T22:31:35;23.30;41.90
1329;DHT22;658;48.820;9.354;2023-03-21T22:35:38;23.20;41.90
1329;DHT22;658;48.820;9.354;2023-03-21T22:39:41;23.20;42.00
1329;DHT22;658;48.820;9.354;2023-03-21T22:43:41;23.20;42.00
1329;DHT22;658;48.820;9.354;2023-03-21T22:47:42;23.10;41.90
1329;DHT22;658;48.820;9.354;2023-03-21T22:51:42;23.10;42.00
1329;DHT22;658;48.820;9.354;2023-03-21T22:55:43;23.10;42.00
1329;DHT22;658;48.820;9.354;2023-03-21T22:59:43;23.10;42.10
1329;DHT22;658;48.820;9.354;2023-03-21T23:03:46;23.00;42.00
1329;DHT22;658;48.820;9.354;2023-03-21T23:07:47;23.00;42.00
1329;DHT22;658;48.820;9.354;2023-03-21T23:11:48;23.00;42.00
1329;DHT22;658;48.820;9.354;2023-03-21T23:15:49;22.90;42.00
1329;DHT22;658;48.820;9.354;2023-03-21T23:19:50;22.90;42.00
1329;DHT22;658;48.820;9.354;2023-03-21T23:23:51;22.90;42.00
1329;DHT22;658;48.820;9.354;2023-03-21T23:27:52;22.90;42.00
1329;DHT22;658;48.820;9.354;2023-03-21T23:31:52;22.90;42.00
1329;DHT22;658;48.820;9.354;2023-03-21T23:35:54;22.90;42.00
1329;DHT22;658;48.820;9.354;2023-03-21T23:39:57;22.80;41.90
1329;DHT22;658;48.820;9.354;2023-03-21T23:43:57;22.80;41.90
1329;DHT22;658;48.820;9.354;2023-03-21T23:47:58;22.80;42.00
1329;DHT22;658;48.820;9.354;2023-03-21T23:52:01;22.80;41.90
1329;DHT22;658;48.820;9.354;2023-03-21T23:56:12;22.80;42.00
